Time;durP1;ratioP1;P1;durP2;ratioP2;P2;SDS_P1;SDS_P2;PMS_P1;PMS_P2;Temp;Humidity;BMP_temperature;BMP_pressure;BME280_temperature;BME280_humidity;BME280_pressure;Samples;Min_cycle;Max_cycle;Signal;HPM_P1;HPM_P2
2023/01/04 00:00:11;;;;;;;80.90;36.30;;;;;;;1.61;81.94;101606.04;104698;1304;22725;-84
2023/01/04 00:03:02;;;;;;;81.30;38.90;;;;;;;1.61;81.93;101608.62;104733;1295;22434;-85
2023/01/04 00:05:33;;;;;;;87.20;42.20;;;;;;;1.61;82.04;101604.70;104715;1304;22628;-84
2023/01/04 00:08:04;;;;;;;91.70;41.80;;;;;;;1.61;82.05;101603.67;104659;1280;23522;-84
2023/01/04 00:10:35;;;;;;;81.70;39.40;;;;;;;1.61;82.25;101597.39;104672;1304;23513;-84
2023/01/04 00:13:05;;;;;;;82.50;40.70;;;;;;;1.60;82.24;101601.32;104648;1281;25372;-84
2023/01/04 00:15:36;;;;;;;87.70;37.60;;;;;;;1.60;82.22;101599.81;104605;1295;22491;-84
2023/01/04 00:18:07;;;;;;;80.20;38.20;;;;;;;1.59;82.33;101598.02;104679;1304;22515;-84
2023/01/04 00:20:37;;;;;;;72.10;34.30;;;;;;;1.60;82.43;101592.67;104670;1297;22627;-84
2023/01/04 00:23:08;;;;;;;75.30;34.20;;;;;;;1.59;82.36;101593.52;104669;1303;25395;-84
2023/01/04 00:25:40;;;;;;;74.20;33.80;;;;;;;1.57;82.35;101593.82;104690;1296;22473;-84
2023/01/04 00:28:11;;;;;;;72.60;34.60;;;;;;;1.56;82.34;101593.36;104714;1303;22489;-84
2023/01/04 00:30:42;;;;;;;72.50;34.50;;;;;;;1.57;82.32;101589.50;104755;1304;22496;-84
2023/01/04 00:33:12;;;;;;;75.40;34.60;;;;;;;1.57;82.26;101587.77;104631;1280;22690;-84
2023/01/04 00:35:43;;;;;;;74.70;36.00;;;;;;;1.51;82.07;101591.12;104720;1274;24263;-84
2023/01/04 00:38:14;;;;;;;88.80;39.20;;;;;;;1.46;81.96;101593.45;104649;1272;24257;-84
2023/01/04 00:40:45;;;;;;;71.50;33.90;;;;;;;1.41;82.25;101596.40;104663;1274;22411;-84
2023/01/04 00:43:15;;;;;;;79.80;37.60;;;;;;;1.39;82.38;101597.42;104798;1303;22486;-84
2023/01/04 00:45:46;;;;;;;74.90;34.10;;;;;;;1.39;82.38;101589.40;104654;1303;24272;-84
2023/01/04 00:48:17;;;;;;;73.80;33.60;;;;;;;1.35;82.38;101580.96;104696;1297;22490;-84
2023/01/04 00:50:48;;;;;;;70.70;31.10;;;;;;;1.32;82.46;101577.41;104843;1297;22797;-84
2023/01/04 00:53:19;;;;;;;71.20;33.90;;;;;;;1.30;82.49;101581.41;104558;1303;22516;-84
2023/01/04 00:55:50;;;;;;;65.10;31.40;;;;;;;1.29;82.71;101579.43;104715;1287;23216;-84
2023/01/04 00:58:20;;;;;;;61.60;29.10;;;;;;;1.28;82.50;101582.02;104723;1288;23110;-84
2023/01/04 01:00:52;;;;;;;65.20;31.80;;;;;;;1.24;82.31;101586.08;104642;1304;22463;-84
2023/01/04 01:03:22;;;;;;;65.70;30.50;;;;;;;1.20;82.49;101584.88;104657;1304;22431;-84
2023/01/04 01:05:53;;;;;;;72.70;31.40;;;;;;;1.18;82.30;101585.58;104706;1296;22464;-84
2023/01/04 01:08:26;;;;;;;62.90;28.80;;;;;;;1.12;82.42;101588.05;104696;1294;22711;-84
2023/01/04 01:11:02;;;;;;;67.90;31.90;;;;;;;1.06;82.53;101579.42;104660;1303;22503;-83
2023/01/04 01:13:33;;;;;;;59.20;29.90;;;;;;;1.02;82.53;101588.05;104682;1281;22513;-83
2023/01/04 01:16:10;;;;;;;64.30;30.60;;;;;;;0.98;82.64;101581.27;104730;1294;22471;-83
2023/01/04 01:18:43;;;;;;;67.20;31.80;;;;;;;0.93;82.57;101584.13;104701;1303;23793;-83
2023/01/04 01:21:16;;;;;;;67.30;30.30;;;;;;;0.88;82.58;101586.21;104759;1296;25384;-82
2023/01/04 01:23:46;;;;;;;68.60;30.80;;;;;;;0.87;82.84;101582.66;104686;1288;25266;-83
2023/01/04 01:26:20;;;;;;;62.50;29.10;;;;;;;0.88;82.98;101584.39;104749;1303;22475;-83
2023/01/04 01:28:52;;;;;;;65.20;28.70;;;;;;;0.90;82.99;101580.34;104737;1306;24264;-83
2023/01/04 01:31:24;;;;;;;62.50;30.10;;;;;;;0.91;82.97;101576.49;104658;1298;22490;-83
2023/01/04 01:33:56;;;;;;;68.80;29.80;;;;;;;0.90;82.79;101572.88;104777;1298;22484;-83
2023/01/04 01:36:28;;;;;;;61.90;29.10;;;;;;;0.89;82.58;101566.19;104729;1298;22557;-83
2023/01/04 01:38:58;;;;;;;67.40;29.80;;;;;;;0.88;82.45;101569.10;104739;1297;22495;-83
2023/01/04 01:41:32;;;;;;;73.00;30.00;;;;;;;0.87;82.52;101567.99;104686;1304;24525;-83
2023/01/04 01:44:05;;;;;;;69.80;30.90;;;;;;;0.87;82.78;101561.30;104645;1305;22458;-83
2023/01/04 01:46:41;;;;;;;67.30;30.40;;;;;;;0.87;82.81;101556.76;104614;1304;22463;-84
2023/01/04 01:49:21;;;;;;;72.90;32.30;;;;;;;0.87;82.86;101553.92;104634;1303;22484;-83
2023/01/04 01:51:53;;;;;;;73.00;31.30;;;;;;;0.84;82.75;101549.51;104681;1302;22612;-83
2023/01/04 01:54:30;;;;;;;64.90;29.10;;;;;;;0.83;82.87;101547.30;104728;1281;22525;-83
2023/01/04 01:57:03;;;;;;;63.20;29.90;;;;;;;0.83;82.91;101550.91;104672;1303;23948;-84
2023/01/04 01:59:36;;;;;;;75.20;33.00;;;;;;;0.83;82.94;101548.08;104746;1303;23373;-84
2023/01/04 02:02:07;;;;;;;69.80;32.40;;;;;;;0.81;82.80;101551.05;104677;1274;22451;-83
2023/01/04 02:04:40;;;;;;;70.50;31.10;;;;;;;0.79;82.90;101546.48;104640;1278;24059;-84
2023/01/04 02:07:14;;;;;;;70.90;32.10;;;;;;;0.77;82.92;101541.75;104598;1303;22467;-84
2023/01/04 02:09:46;;;;;;;65.10;31.60;;;;;;;0.77;83.07;101540.02;104795;1304;22479;-83
2023/01/04 02:12:17;;;;;;;69.30;30.80;;;;;;;0.77;83.09;101533.52;104996;1297;22541;-84
2023/01/04 02:14:50;;;;;;;69.20;31.50;;;;;;;0.76;83.09;101534.52;105172;1290;22488;-83
2023/01/04 02:17:32;;;;;;;70.30;30.50;;;;;;;0.75;83.03;101534.66;104900;1288;24379;-84
2023/01/04 02:20:16;;;;;;;68.00;30.00;;;;;;;0.74;82.97;101527.75;104630;1303;24279;-84
2023/01/04 02:23:21;;;;;;;68.70;32.00;;;;;;;0.73;82.93;101527.03;104827;1303;22585;-84
2023/01/04 02:26:19;;;;;;;70.50;31.80;;;;;;;0.71;83.00;101524.81;104754;1300;25931;-84
2023/01/04 02:29:11;;;;;;;74.20;33.30;;;;;;;0.69;83.04;101528.65;104718;1298;22435;-84
2023/01/04 02:31:45;;;;;;;64.70;32.20;;;;;;;0.66;83.03;101525.80;104772;1304;22481;-84
2023/01/04 02:34:24;;;;;;;70.60;32.60;;;;;;;0.63;83.23;101518.09;104766;1304;22478;-84
2023/01/04 02:37:04;;;;;;;61.20;29.70;;;;;;;0.62;83.25;101512.81;104706;1288;25386;-84
2023/01/04 02:39:46;;;;;;;61.80;30.50;;;;;;;0.61;83.28;101508.34;104790;1303;23220;-84
2023/01/04 02:44:51;;;;;;;65.30;28.40;;;;;;;0.60;83.30;101500.88;104744;1298;22525;-84
2023/01/04 02:45:18;;;;;;;61.30;27.70;;;;;;;0.60;83.35;101497.09;104696;1303;22609;-84
2023/01/04 02:50:50;;;;;;;52.90;24.40;;;;;;;0.59;83.41;101478.80;104775;1301;22502;-84
2023/01/04 02:53:26;;;;;;;68.10;27.90;;;;;;;0.54;83.34;101476.56;104627;1303;22570;-84
2023/01/04 02:56:14;;;;;;;65.60;28.30;;;;;;;0.54;83.44;101475.14;104566;1305;22527;-84
2023/01/04 02:59:02;;;;;;;57.80;24.90;;;;;;;0.50;83.46;101471.74;104596;1304;24116;-84
2023/01/04 03:07:39;;;;;;;52.90;23.60;;;;;;;0.49;83.58;101468.27;104617;1302;22437;-84
2023/01/04 03:10:16;;;;;;;57.00;25.80;;;;;;;0.47;83.56;101464.10;104680;1303;25314;-83
2023/01/04 03:12:52;;;;;;;57.80;25.00;;;;;;;0.46;83.54;101461.34;104717;1304;25288;-82
2023/01/04 03:15:27;;;;;;;52.10;24.50;;;;;;;0.45;83.61;101452.55;104809;1295;22494;-83
2023/01/04 03:18:01;;;;;;;53.40;24.70;;;;;;;0.42;83.54;101452.92;104673;1281;22485;-83
2023/01/04 03:20:32;;;;;;;57.40;25.40;;;;;;;0.40;83.54;101446.38;104652;1280;27878;-83
2023/01/04 03:37:24;;;;;;;49.00;19.80;;;;;;;0.27;83.56;101438.77;104799;1297;22898;-84
2023/01/04 03:49:06;;;;;;;46.30;19.70;;;;;;;0.26;83.80;101425.10;104750;1295;23317;-84
2023/01/04 03:51:38;;;;;;;44.40;19.00;;;;;;;0.26;83.80;101418.89;104741;1303;25077;-83
2023/01/04 03:54:13;;;;;;;50.30;20.70;;;;;;;0.26;83.78;101412.23;104684;1300;24276;-83
2023/01/04 03:56:46;;;;;;;51.90;20.90;;;;;;;0.25;83.72;101412.13;104792;1303;25369;-83
2023/01/04 03:59:16;;;;;;;45.80;19.40;;;;;;;0.24;83.71;101407.26;104796;1289;22541;-83
2023/01/04 04:01:47;;;;;;;50.70;19.10;;;;;;;0.23;83.80;101399.58;104753;1297;22552;-84
2023/01/04 04:09:55;;;;;;;48.50;19.00;;;;;;;0.25;84.00;101386.56;104793;1296;24313;-84
2023/01/04 04:12:26;;;;;;;51.00;20.80;;;;;;;0.25;84.07;101381.70;104823;1297;22528;-83
2023/01/04 04:14:56;;;;;;;48.90;20.40;;;;;;;0.26;83.97;101379.89;104726;1303;24292;-84
2023/01/04 04:17:27;;;;;;;46.10;19.80;;;;;;;0.25;84.14;101370.40;104752;1304;22532;-84
2023/01/04 04:19:58;;;;;;;56.10;20.80;;;;;;;0.24;84.05;101367.02;104822;1303;22485;-83
2023/01/04 04:22:28;;;;;;;45.80;18.70;;;;;;;0.21;84.22;101370.76;104889;1297;22472;-83
2023/01/04 04:24:59;;;;;;;39.90;18.30;;;;;;;0.20;84.28;101368.02;104840;1297;22468;-84
2023/01/04 04:27:30;;;;;;;43.60;18.40;;;;;;;0.22;84.37;101369.73;104886;1288;23263;-84
2023/01/04 04:30:01;;;;;;;45.10;18.30;;;;;;;0.21;84.37;101368.02;104805;1296;22523;-83
2023/01/04 04:32:32;;;;;;;46.90;21.00;;;;;;;0.22;84.49;101371.23;104832;1297;22546;-84
2023/01/04 04:35:03;;;;;;;52.50;22.10;;;;;;;0.22;84.54;101367.79;104829;1302;22629;-84
2023/01/04 04:37:34;;;;;;;55.50;22.10;;;;;;;0.21;84.54;101369.73;104729;1299;22452;-84
2023/01/04 04:40:05;;;;;;;47.60;21.60;;;;;;;0.21;84.47;101370.61;104900;1303;25632;-84
2023/01/04 04:42:36;;;;;;;43.10;19.10;;;;;;;0.21;84.56;101367.30;104873;1300;24893;-84
2023/01/04 04:45:08;;;;;;;43.50;19.10;;;;;;;0.21;84.55;101364.41;105077;1288;22598;-87
2023/01/04 04:47:39;;;;;;;40.00;16.80;;;;;;;0.20;84.56;101367.23;105848;1279;26467;-85
2023/01/04 04:50:10;;;;;;;45.00;19.50;;;;;;;0.22;84.61;101366.37;104890;1303;25528;-84
2023/01/04 04:52:41;;;;;;;49.30;21.90;;;;;;;0.23;84.57;101361.59;104702;1281;24039;-84
2023/01/04 04:55:11;;;;;;;42.10;19.60;;;;;;;0.23;84.64;101361.05;104848;1303;24491;-85
2023/01/04 04:57:42;;;;;;;43.50;17.60;;;;;;;0.25;84.62;101356.50;104885;1303;22537;-84
2023/01/04 05:00:15;;;;;;;39.30;16.10;;;;;;;0.25;84.71;101360.50;104676;1303;22460;-82
2023/01/04 05:02:46;;;;;;;39.70;16.70;;;;;;;0.26;84.75;101361.30;104642;1303;22477;-83
2023/01/04 05:05:17;;;;;;;37.80;17.00;;;;;;;0.26;84.72;101360.52;104497;1280;24240;-83
2023/01/04 05:07:48;;;;;;;37.80;14.90;;;;;;;0.26;84.65;101357.29;104626;1304;22464;-83
2023/01/04 05:10:19;;;;;;;36.30;15.00;;;;;;;0.25;84.72;101349.83;104671;1303;24250;-83
2023/01/04 05:13:02;;;;;;;38.10;16.20;;;;;;;0.25;84.77;101338.92;104561;1296;24324;-83
2023/01/04 05:15:36;;;;;;;38.90;15.80;;;;;;;0.26;84.76;101328.18;104638;1296;22556;-83
2023/01/04 05:18:08;;;;;;;41.20;16.60;;;;;;;0.25;84.71;101319.70;104718;1294;22752;-83
2023/01/04 05:20:39;;;;;;;39.70;15.90;;;;;;;0.25;84.75;101314.92;104641;1288;22425;-83
2023/01/04 05:23:11;;;;;;;38.90;14.80;;;;;;;0.23;84.76;101313.17;104750;1303;22494;-86
2023/01/04 05:25:43;;;;;;;44.30;17.70;;;;;;;0.21;84.98;101317.10;104700;1297;24339;-83
2023/01/04 05:28:14;;;;;;;40.60;16.30;;;;;;;0.21;85.13;101308.61;104693;1304;24347;-84
2023/01/04 05:30:51;;;;;;;45.10;18.30;;;;;;;0.21;85.07;101308.30;104854;1297;22714;-81
2023/01/04 05:33:27;;;;;;;37.80;16.30;;;;;;;0.21;85.34;101308.00;104617;1296;24059;-79
2023/01/04 05:35:59;;;;;;;38.80;18.40;;;;;;;0.18;85.61;101307.98;104375;1287;22470;-79
2023/01/04 05:38:30;;;;;;;44.60;19.40;;;;;;;0.16;85.66;101302.06;104131;1281;22476;-78
2023/01/04 05:41:01;;;;;;;42.50;18.60;;;;;;;0.18;85.72;101300.52;104145;1287;22469;-82
2023/01/04 05:43:32;;;;;;;47.00;19.80;;;;;;;0.19;85.94;101300.13;104528;1281;22578;-80
2023/01/04 05:46:02;;;;;;;46.00;21.00;;;;;;;0.20;86.04;101299.74;104555;1287;25381;-80
2023/01/04 05:48:31;;;;;;;;;;;;;;;0.22;86.09;101294.42;104559;1300;25345;-79
2023/01/04 05:51:02;;;;;;;50.70;21.30;;;;;;;0.22;86.19;101287.51;104493;1278;22525;-79
2023/01/04 05:53:33;;;;;;;48.60;22.10;;;;;;;0.22;86.20;101286.03;104156;1303;22503;-80
2023/01/04 05:56:03;;;;;;;45.10;22.50;;;;;;;0.21;86.41;101288.15;104771;1290;22609;-81
2023/01/04 05:58:34;;;;;;;42.10;19.00;;;;;;;0.20;86.38;101286.48;104484;1305;22529;-80
2023/01/04 06:01:06;;;;;;;41.60;18.20;;;;;;;0.19;86.26;101284.05;104576;1287;22589;-80
2023/01/04 06:03:37;;;;;;;41.70;18.80;;;;;;;0.19;86.18;101278.88;104745;1303;22598;-80
2023/01/04 06:06:08;;;;;;;40.20;17.50;;;;;;;0.21;86.21;101267.35;104813;1277;22463;-79
2023/01/04 06:08:38;;;;;;;38.40;16.00;;;;;;;0.23;86.92;101274.10;104529;1288;22506;-79
2023/01/04 06:11:09;;;;;;;38.30;16.30;;;;;;;0.22;86.88;101272.30;104028;1288;22526;-78
2023/01/04 06:13:40;;;;;;;36.60;16.90;;;;;;;0.23;86.99;101269.87;104033;1306;22466;-78
2023/01/04 06:16:10;;;;;;;37.90;16.80;;;;;;;0.23;87.10;101266.73;104558;1283;22494;-79
2023/01/04 06:18:41;;;;;;;37.80;15.20;;;;;;;0.26;86.96;101265.58;104635;1288;22463;-79
2023/01/04 06:21:12;;;;;;;39.20;16.60;;;;;;;0.26;87.13;101263.30;104497;1294;22459;-85
2023/01/04 06:23:42;;;;;;;35.30;15.90;;;;;;;0.26;87.41;101257.73;104853;1301;25672;-84
2023/01/04 06:26:13;;;;;;;37.20;16.00;;;;;;;0.29;87.61;101253.34;105264;1295;22552;-84
2023/01/04 06:28:44;;;;;;;35.00;15.60;;;;;;;0.30;88.21;101252.09;105383;1297;22439;-84
2023/01/04 06:31:15;;;;;;;35.80;15.60;;;;;;;0.33;88.25;101250.06;105277;1288;22482;-84
2023/01/04 06:33:45;;;;;;;32.30;14.70;;;;;;;0.37;88.54;101247.66;104844;1304;25028;-83
2023/01/04 06:36:16;;;;;;;34.40;15.10;;;;;;;0.41;88.64;101235.35;104838;1304;23892;-83
2023/01/04 06:38:47;;;;;;;37.00;15.10;;;;;;;0.45;88.71;101238.11;104923;1303;22492;-83
2023/01/04 06:41:18;;;;;;;36.50;15.70;;;;;;;0.47;88.40;101233.50;104881;1304;22481;-83
2023/01/04 06:43:49;;;;;;;31.50;14.50;;;;;;;0.50;88.58;101226.69;104833;1283;22496;-83
2023/01/04 06:46:20;;;;;;;37.10;13.80;;;;;;;0.53;88.53;101218.76;104927;1281;23852;-83
2023/01/04 06:48:52;;;;;;;34.60;14.40;;;;;;;0.55;88.82;101213.20;104925;1305;22462;-86
2023/01/04 06:51:23;;;;;;;36.40;16.20;;;;;;;0.57;88.92;101209.98;105527;1288;22584;-87
2023/01/04 06:53:54;;;;;;;30.50;14.00;;;;;;;0.61;89.11;101206.23;105539;1298;22453;-88
2023/01/04 06:56:25;;;;;;;32.10;13.60;;;;;;;0.65;89.28;101196.02;105511;1299;25011;-86
2023/01/04 06:58:56;;;;;;;27.60;13.10;;;;;;;0.69;89.32;101195.17;105376;1303;22497;-87
2023/01/04 07:01:27;;;;;;;29.20;12.30;;;;;;;0.74;89.57;101190.32;105524;1303;22464;-86
2023/01/04 07:03:57;;;;;;;27.10;11.20;;;;;;;0.80;89.56;101188.13;105615;1304;22495;-86
2023/01/04 07:06:28;;;;;;;26.00;10.90;;;;;;;0.85;89.59;101187.04;105612;1288;22514;-86
2023/01/04 07:08:59;;;;;;;25.60;9.80;;;;;;;0.90;89.86;101185.31;105536;1306;22507;-87
2023/01/04 07:11:29;;;;;;;22.80;9.50;;;;;;;0.95;90.01;101184.86;105672;1295;23856;-87
2023/01/04 07:14:00;;;;;;;25.60;9.70;;;;;;;1.00;90.06;101183.29;105641;1304;26572;-87
2023/01/04 07:16:31;;;;;;;31.50;12.80;;;;;;;1.04;89.84;101174.18;105768;1304;22481;-88
2023/01/04 07:19:01;;;;;;;24.40;10.40;;;;;;;1.08;89.87;101168.92;105721;1303;25384;-87
2023/01/04 07:21:32;;;;;;;28.50;11.60;;;;;;;1.12;90.21;101165.70;105631;1304;22981;-87
2023/01/04 07:24:03;;;;;;;24.00;10.10;;;;;;;1.17;90.25;101159.02;105749;1297;24305;-87
2023/01/04 07:26:34;;;;;;;20.00;8.90;;;;;;;1.23;90.35;101157.20;105815;1305;22470;-86
2023/01/04 07:29:15;;;;;;;19.40;7.60;;;;;;;1.28;90.32;101150.05;105831;1294;22611;-88
2023/01/04 07:31:48;;;;;;;21.10;7.80;;;;;;;1.32;90.27;101153.91;105749;1296;23871;-87
2023/01/04 07:34:21;;;;;;;19.50;7.90;;;;;;;1.37;90.62;101155.55;105726;1296;22751;-87
2023/01/04 07:36:52;;;;;;;25.10;9.10;;;;;;;1.42;90.70;101155.93;105752;1304;22464;-87
2023/01/04 07:39:23;;;;;;;21.60;9.00;;;;;;;1.48;90.55;101157.11;105878;1296;22565;-87
2023/01/04 07:41:54;;;;;;;22.10;8.70;;;;;;;1.53;90.74;101155.45;105867;1288;22536;-87
2023/01/04 07:44:26;;;;;;;22.60;8.30;;;;;;;1.58;90.96;101155.91;105815;1303;22609;-86
2023/01/04 07:46:58;;;;;;;20.10;8.30;;;;;;;1.65;91.04;101150.88;106004;1304;22460;-87
2023/01/04 07:49:29;;;;;;;20.50;8.40;;;;;;;1.74;91.24;101146.29;105812;1303;23873;-87
2023/01/04 07:51:59;;;;;;;24.80;9.10;;;;;;;1.80;91.16;101140.83;105894;1289;22503;-87
2023/01/04 07:54:30;;;;;;;24.40;9.00;;;;;;;1.88;91.45;101132.02;105844;1301;22472;-88
2023/01/04 07:57:01;;;;;;;23.70;9.00;;;;;;;1.94;91.25;101136.31;105847;1282;24374;-87
2023/01/04 07:59:32;;;;;;;26.10;9.60;;;;;;;2.00;91.23;101151.17;105592;1297;25527;-87
2023/01/04 08:02:02;;;;;;;21.80;8.50;;;;;;;2.08;91.36;101150.90;105733;1305;22487;-87
2023/01/04 08:04:33;;;;;;;21.10;7.80;;;;;;;2.16;91.45;101144.57;105783;1304;24282;-87
2023/01/04 08:07:05;;;;;;;23.00;8.90;;;;;;;2.22;91.46;101130.94;105744;1301;22500;-86
2023/01/04 08:09:35;;;;;;;27.10;12.80;;;;;;;2.29;91.42;101120.42;105711;1296;23600;-86
2023/01/04 08:12:07;;;;;;;29.20;13.00;;;;;;;2.35;91.45;101119.13;105784;1304;22491;-88
2023/01/04 08:14:37;;;;;;;22.80;9.10;;;;;;;2.42;91.53;101122.00;105728;1288;23367;-87
2023/01/04 08:17:09;;;;;;;25.40;9.70;;;;;;;2.49;91.63;101115.98;105915;1301;22468;-88
2023/01/04 08:19:40;;;;;;;21.00;8.50;;;;;;;2.57;91.61;101118.36;105803;1304;22460;-86
2023/01/04 08:22:11;;;;;;;22.20;8.70;;;;;;;2.65;91.68;101118.09;105607;1298;22484;-86
2023/01/04 08:24:41;;;;;;;20.70;6.90;;;;;;;2.73;91.74;101113.38;105743;1303;22515;-86
2023/01/04 08:27:12;;;;;;;24.40;9.20;;;;;;;2.82;91.71;101111.18;105681;1304;22964;-87
2023/01/04 08:29:43;;;;;;;22.10;9.20;;;;;;;2.90;91.71;101104.35;105673;1306;22445;-86
2023/01/04 08:32:14;;;;;;;19.80;8.40;;;;;;;2.99;91.65;101095.92;105524;1306;22533;-86
2023/01/04 08:34:44;;;;;;;19.00;7.70;;;;;;;3.10;91.75;101088.52;105529;1303;25571;-86
2023/01/04 08:37:15;;;;;;;21.60;7.60;;;;;;;3.19;91.64;101079.03;105345;1293;22590;-84
2023/01/04 08:39:46;;;;;;;20.30;8.90;;;;;;;3.29;91.65;101077.20;105125;1305;23176;-85
2023/01/04 08:42:17;;;;;;;17.80;7.00;;;;;;;3.38;91.69;101078.69;105200;1282;23866;-85
2023/01/04 08:44:48;;;;;;;20.20;7.30;;;;;;;3.47;91.67;101084.73;105298;1277;22476;-85
2023/01/04 08:47:18;;;;;;;20.60;8.10;;;;;;;3.57;91.48;101077.30;105348;1304;24274;-86
2023/01/04 08:49:49;;;;;;;16.10;6.40;;;;;;;3.66;91.33;101069.22;105253;1296;22729;-87
2023/01/04 08:52:20;;;;;;;14.80;5.30;;;;;;;3.75;91.23;101057.77;105372;1297;23432;-86
2023/01/04 08:54:51;;;;;;;16.00;5.50;;;;;;;3.84;91.11;101049.52;105315;1296;22777;-86
2023/01/04 08:57:22;;;;;;;16.30;5.60;;;;;;;3.91;91.02;101042.65;105330;1297;22492;-86
2023/01/04 08:59:53;;;;;;;15.50;6.10;;;;;;;3.99;90.97;101048.53;105334;1288;22488;-86
2023/01/04 09:02:26;;;;;;;20.00;6.00;;;;;;;4.08;90.82;101038.95;105279;1302;25367;-86
2023/01/04 09:04:58;;;;;;;19.10;4.80;;;;;;;4.16;90.80;101035.67;105333;1304;22554;-87
2023/01/04 09:07:32;;;;;;;16.10;4.60;;;;;;;4.23;90.63;101029.81;105455;1300;24253;-86
2023/01/04 09:10:03;;;;;;;14.90;5.30;;;;;;;4.31;90.50;101025.27;105162;1282;22472;-86
2023/01/04 09:12:33;;;;;;;16.40;4.90;;;;;;;4.36;90.47;101020.70;105380;1297;26546;-86
2023/01/04 09:15:05;;;;;;;14.40;4.80;;;;;;;4.42;90.51;101015.31;105402;1303;25367;-87
2023/01/04 09:17:36;;;;;;;17.60;5.90;;;;;;;4.48;90.40;101012.46;105296;1304;24267;-86
2023/01/04 09:20:08;;;;;;;17.10;5.70;;;;;;;4.53;90.24;101006.92;105302;1288;22423;-86
2023/01/04 09:22:39;;;;;;;19.10;5.60;;;;;;;4.59;90.13;100999.46;105405;1306;22601;-87
2023/01/04 09:25:10;;;;;;;16.20;5.00;;;;;;;4.65;90.06;100992.73;105410;1305;22487;-86
2023/01/04 09:27:41;;;;;;;14.40;4.70;;;;;;;4.71;89.95;100982.36;105378;1298;22469;-87
2023/01/04 09:30:14;;;;;;;10.70;3.50;;;;;;;4.78;89.86;100976.40;105503;1287;22506;-86
2023/01/04 09:32:45;;;;;;;17.30;3.90;;;;;;;4.84;89.74;100971.55;105261;1281;22647;-87
2023/01/04 09:35:16;;;;;;;14.00;5.00;;;;;;;4.90;89.48;100967.34;105286;1297;22490;-86
2023/01/04 09:37:46;;;;;;;31.00;12.70;;;;;;;4.96;89.37;100955.59;105410;1287;22427;-87
2023/01/04 09:40:24;;;;;;;37.00;14.10;;;;;;;5.01;89.32;100944.59;105344;1302;25371;-86
2023/01/04 09:42:56;;;;;;;33.20;11.70;;;;;;;5.06;89.00;100939.44;105356;1300;25271;-86
2023/01/04 09:45:28;;;;;;;39.50;14.50;;;;;;;5.10;88.95;100930.73;105450;1302;22497;-85
2023/01/04 09:48:06;;;;;;;26.90;8.70;;;;;;;5.15;88.86;100929.37;105206;1299;203480;-85
2023/01/04 09:50:45;;;;;;;27.10;7.10;;;;;;;5.19;88.63;100919.10;105450;1306;22498;-85
2023/01/04 09:53:22;;;;;;;16.70;6.00;;;;;;;5.24;88.46;100907.77;105448;1303;22495;-86
2023/01/04 09:55:56;;;;;;;21.90;7.30;;;;;;;5.28;88.33;100896.91;105429;1305;22533;-86
2023/01/04 09:58:32;;;;;;;30.50;9.10;;;;;;;5.33;88.32;100892.93;105359;1303;22528;-86
2023/01/04 10:01:06;;;;;;;26.80;10.10;;;;;;;5.37;88.13;100887.47;105433;1303;22485;-85
2023/01/04 10:03:39;;;;;;;16.90;5.00;;;;;;;5.43;88.14;100880.54;105518;1279;22534;-85
2023/01/04 10:06:14;;;;;;;13.70;3.90;;;;;;;5.49;88.08;100875.73;105491;1300;22525;-86
2023/01/04 10:08:46;;;;;;;11.90;3.80;;;;;;;5.54;87.98;100874.52;105367;1304;22466;-86
2023/01/04 10:11:28;;;;;;;14.30;3.80;;;;;;;5.59;87.90;100868.15;105424;1303;22480;-85
2023/01/04 10:14:28;;;;;;;13.80;3.80;;;;;;;5.64;87.88;100859.42;105382;1304;22487;-86
2023/01/04 10:17:10;;;;;;;12.50;3.10;;;;;;;5.69;87.85;100855.50;105512;1305;22492;-85
2023/01/04 10:19:58;;;;;;;10.40;3.10;;;;;;;5.73;87.72;100843.61;105472;1306;25413;-86
2023/01/04 10:22:38;;;;;;;15.30;2.60;;;;;;;5.79;87.57;100834.79;105375;1285;22592;-86
2023/01/04 10:25:23;;;;;;;12.50;3.50;;;;;;;5.84;87.65;100830.80;105509;1304;22940;-86
2023/01/04 10:28:12;;;;;;;10.80;3.00;;;;;;;5.90;87.70;100823.67;105382;1304;25438;-87
2023/01/04 10:30:51;;;;;;;12.30;2.90;;;;;;;5.98;87.40;100816.98;105323;1303;22542;-86
2023/01/04 10:33:30;;;;;;;9.30;2.20;;;;;;;6.08;87.26;100806.70;105364;1304;22529;-87
2023/01/04 10:36:02;;;;;;;7.00;1.60;;;;;;;6.17;86.99;100797.83;105199;1305;22481;-86
2023/01/04 10:38:38;;;;;;;8.10;1.60;;;;;;;6.26;86.59;100796.07;105316;1303;24292;-88
2023/01/04 10:41:16;;;;;;;9.30;1.70;;;;;;;6.37;86.04;100789.90;105417;1304;22512;-86
2023/01/04 10:43:51;;;;;;;7.20;1.50;;;;;;;6.48;85.60;100779.73;105506;1306;22477;-87
2023/01/04 10:46:29;;;;;;;6.70;1.30;;;;;;;6.58;85.73;100767.77;105372;1277;23036;-86
2023/01/04 10:49:06;;;;;;;6.20;1.10;;;;;;;6.66;85.53;100765.65;105407;1298;22491;-86
2023/01/04 10:51:44;;;;;;;12.70;2.20;;;;;;;6.73;85.35;100759.82;105437;1304;22578;-87
2023/01/04 10:54:26;;;;;;;7.90;1.80;;;;;;;6.79;84.94;100746.01;105374;1304;24970;-86
2023/01/04 10:57:01;;;;;;;10.70;1.90;;;;;;;6.85;84.54;100741.40;105438;1306;22476;-86
2023/01/04 10:59:41;;;;;;;6.90;1.70;;;;;;;6.90;84.80;100735.84;105356;1300;25225;-86
2023/01/04 11:02:22;;;;;;;11.90;1.80;;;;;;;6.94;84.44;100733.56;105462;1286;22573;-86
2023/01/04 11:05:01;;;;;;;14.90;1.60;;;;;;;6.97;84.29;100725.71;105413;1306;22497;-86
2023/01/04 11:07:40;;;;;;;7.30;1.40;;;;;;;6.99;83.89;100714.71;105396;1302;22443;-85
2023/01/04 11:10:15;;;;;;;6.90;1.50;;;;;;;7.00;83.65;100711.67;105488;1295;22508;-86
2023/01/04 11:12:46;;;;;;;7.00;1.40;;;;;;;7.02;83.53;100713.44;105527;1306;22433;-87
2023/01/04 11:15:16;;;;;;;7.60;1.50;;;;;;;7.02;83.36;100710.49;105488;1306;22424;-86
2023/01/04 11:17:49;;;;;;;10.10;1.40;;;;;;;7.03;83.46;100713.70;105478;1306;25274;-86
2023/01/04 11:20:19;;;;;;;7.40;1.60;;;;;;;7.04;83.42;100709.17;105393;1285;22456;-86
2023/01/04 11:22:58;;;;;;;7.20;1.70;;;;;;;7.03;83.09;100699.84;105418;1294;24044;-86
2023/01/04 11:25:33;;;;;;;9.10;1.30;;;;;;;7.03;83.23;100692.62;105627;1302;22558;-85
2023/01/04 11:28:12;;;;;;;6.90;1.40;;;;;;;7.03;82.90;100683.02;105571;1306;22409;-87
2023/01/04 11:30:50;;;;;;;8.70;1.60;;;;;;;7.03;82.88;100688.58;105515;1304;22570;-86
2023/01/04 11:33:22;;;;;;;7.80;1.30;;;;;;;7.03;82.92;100680.41;105461;1303;22506;-86
2023/01/04 11:35:55;;;;;;;6.30;1.20;;;;;;;7.04;82.58;100669.58;105458;1293;22546;-86
2023/01/04 11:38:28;;;;;;;6.50;1.30;;;;;;;7.05;82.38;100661.72;105549;1304;22801;-87
2023/01/04 11:41:04;;;;;;;7.00;1.20;;;;;;;7.07;82.27;100654.44;105431;1307;23852;-85
2023/01/04 11:43:36;;;;;;;9.70;1.90;;;;;;;7.08;82.13;100649.94;105503;1306;23302;-86
2023/01/04 11:46:23;;;;;;;7.50;1.40;;;;;;;7.11;81.84;100642.88;105547;1301;23077;-86
2023/01/04 11:48:54;;;;;;;8.90;1.30;;;;;;;7.14;81.67;100631.44;105525;1282;25590;-86
2023/01/04 11:51:42;;;;;;;6.60;1.30;;;;;;;7.16;81.36;100625.64;105541;1301;22523;-86
2023/01/04 11:54:29;;;;;;;7.10;1.20;;;;;;;7.19;81.48;100616.98;105538;1304;26338;-88
2023/01/04 11:57:05;;;;;;;7.20;1.30;;;;;;;7.22;81.17;100612.84;105427;1307;22478;-86
2023/01/04 11:59:36;;;;;;;4.20;1.10;;;;;;;7.25;81.01;100606.39;105395;1305;24277;-86
2023/01/04 12:02:24;;;;;;;8.70;1.50;;;;;;;7.27;81.15;100602.03;105466;1305;25932;-87
2023/01/04 12:04:56;;;;;;;5.50;1.40;;;;;;;7.28;81.45;100600.19;105356;1309;22468;-87
2023/01/04 12:07:32;;;;;;;6.30;1.50;;;;;;;7.26;81.55;100600.71;105354;1309;22546;-86
2023/01/04 12:10:19;;;;;;;4.50;1.00;;;;;;;7.22;81.31;100589.85;105419;1303;25306;-87
2023/01/04 12:12:50;;;;;;;6.10;1.20;;;;;;;7.18;81.65;100586.70;105178;1303;22518;-83
2023/01/04 12:15:28;;;;;;;5.40;1.10;;;;;;;7.15;81.88;100582.58;104842;1304;22410;-83
2023/01/04 12:18:03;;;;;;;7.00;1.20;;;;;;;7.14;82.02;100563.36;104834;1309;22460;-83
2023/01/04 12:20:39;;;;;;;7.00;1.50;;;;;;;7.12;82.20;100559.55;104703;1279;22493;-84